Pagrindinis puslapis
METAR-TAF:

METAR-TAF

Oro uostai :

Panama, Panama

platuma: 08-59N, ilguma: 079-31W, Aukštis: 13 m

Dabartinis oras

Ataskaita buvo paskelbta 49 minutes, ne 12:00 UTC
Vėjas 5 kt iš Šiaurės
Temperatūra 24°C
Drėgmė 89%
Slėgis 1014 hPa
Matomumas 10 km arba daugiau
Mažai debesys ne aukštis 2000 ft

METAR: MPMG 281200Z 35005KT 9999 FEW020 24/22 Q1014 NOSIG

Laikas: 07:49 (12:49 UTC)

Prognozė

Ataskaita buvo paskelbta 1 valandą ir 49 minutes, ne 11:00 UTC
Prognozė galioja nuo 28 metu 12 UTC su 28 metu 24 UTC
Vėjas 10 kt iš Šiaurės/Šiaurės Vakarų
Matomumas 10 km arba daugiau
Išsisklaidę debesys ne aukštis 1800 ft
Laikinai
nuo 28 metu 18 UTC su 28 metu 20 UTC
Vėjas 14 kt iš Šiaurės

TAF: MPMG 281100Z 2812/2824 34010KT 9999 SCT018 TEMPO 2818/2820 36014KT

Orai ataskaitas ir orų prognozės (METAR, TAF).

turimą stotys yra geltonos ir raudonos taškus žemėlapyje.

Perkelti pele per norėdami pamatyti stoties vardą.

Tada spustelėkite, norėdami matyti oro stebėjimo ir prognozės.

Norėdami pakeisti žemėlapį: spustelėkite ant žalios mygtukų su juodo kryžiaus žemyn,; žalią mygtuką su brūkšneliu, jei norite nutolinti; arba žalių rodyklių gretimoms žemėlapius.


METAR-TAF: